createdAt,value
2023-06-30T00:00:18.509Z,0.10
2023-06-30T00:02:47.320Z,0.40
2023-06-30T00:05:17.645Z,0.20
2023-06-30T00:07:45.217Z,0.30
2023-06-30T00:10:12.007Z,0.33
2023-06-30T00:12:39.307Z,0.10
2023-06-30T00:15:06.696Z,0.20
2023-06-30T00:17:33.558Z,0.20
2023-06-30T00:20:00.832Z,0.30
2023-06-30T00:22:28.191Z,0.70
2023-06-30T00:24:56.742Z,0.10
2023-06-30T00:27:24.603Z,0.20
2023-06-30T00:29:52.154Z,0.10
2023-06-30T00:32:19.141Z,0.30
2023-06-30T00:34:46.204Z,0.73
2023-06-30T00:37:13.365Z,0.10
2023-06-30T00:39:40.182Z,0.30
2023-06-30T00:42:07.275Z,0.20
2023-06-30T00:44:34.150Z,0.47
2023-06-30T00:47:02.024Z,0.83
2023-06-30T00:49:32.800Z,0.20
2023-06-30T00:52:00.770Z,0.40
2023-06-30T00:54:27.983Z,0.20
2023-06-30T00:56:54.831Z,0.23
2023-06-30T00:59:22.579Z,0.10
2023-06-30T01:02:05.324Z,0.33
2023-06-30T01:04:49.446Z,0.27
2023-06-30T01:07:40.492Z,0.20
2023-06-30T01:10:15.071Z,0.80
2023-06-30T01:12:44.117Z,0.20
2023-06-30T01:15:12.159Z,0.43
2023-06-30T01:17:47.262Z,0.40
2023-06-30T01:20:17.703Z,0.30
2023-06-30T01:23:11.972Z,0.40
2023-06-30T01:25:39.451Z,0.20
2023-06-30T01:28:06.477Z,0.10
2023-06-30T01:30:34.074Z,0.13
2023-06-30T01:33:01.234Z,0.23
2023-06-30T01:35:29.323Z,0.50
2023-06-30T01:37:57.488Z,0.13
2023-06-30T01:40:24.696Z,0.30
2023-06-30T01:42:55.924Z,0.47
2023-06-30T01:45:25.738Z,0.73
2023-06-30T01:47:53.488Z,0.30
2023-06-30T01:50:21.441Z,0.30
2023-06-30T01:52:48.395Z,0.47
2023-06-30T01:55:15.299Z,0.40
2023-06-30T01:57:42.148Z,0.10
2023-06-30T02:00:09.614Z,0.10
2023-06-30T02:02:36.583Z,0.20
2023-06-30T02:05:03.523Z,0.50
2023-06-30T02:07:30.391Z,0.40
2023-06-30T02:09:57.246Z,0.30
2023-06-30T02:12:24.140Z,0.40
2023-06-30T02:14:50.978Z,0.20
2023-06-30T02:17:27.006Z,0.20
2023-06-30T02:19:53.930Z,0.13
2023-06-30T02:22:20.790Z,0.10
2023-06-30T02:24:47.637Z,0.10
2023-06-30T02:27:14.469Z,0.33
2023-06-30T02:29:41.270Z,0.30
2023-06-30T02:32:08.741Z,0.20
2023-06-30T02:34:35.571Z,0.20
2023-06-30T02:37:02.846Z,0.00
2023-06-30T02:39:29.720Z,0.20
2023-06-30T02:41:56.547Z,0.47
2023-06-30T02:44:23.341Z,0.57
2023-06-30T02:46:50.132Z,0.40
2023-06-30T02:49:16.970Z,0.20
2023-06-30T02:51:43.813Z,0.70
2023-06-30T02:54:10.781Z,0.20
2023-06-30T02:56:37.627Z,0.30
2023-06-30T02:59:04.430Z,0.30
2023-06-30T03:01:31.357Z,0.30
2023-06-30T03:03:58.500Z,0.30
2023-06-30T03:06:25.458Z,0.27
2023-06-30T03:08:52.257Z,0.27
2023-06-30T03:11:19.077Z,0.20
2023-06-30T03:13:47.417Z,0.27
2023-06-30T03:16:14.194Z,0.10
2023-06-30T03:18:41.351Z,0.40
2023-06-30T03:21:08.146Z,0.50
2023-06-30T03:23:34.937Z,0.23
2023-06-30T03:26:02.743Z,0.53
2023-06-30T03:28:29.549Z,0.23
2023-06-30T03:30:57.960Z,0.20
2023-06-30T03:33:24.891Z,0.13
2023-06-30T03:35:52.042Z,0.73
2023-06-30T03:38:18.918Z,0.40
2023-06-30T03:40:45.768Z,0.27
2023-06-30T03:43:12.775Z,0.20
2023-06-30T03:45:39.696Z,0.30
2023-06-30T03:48:06.759Z,0.20
2023-06-30T03:50:33.568Z,0.30
2023-06-30T03:53:00.380Z,0.20
2023-06-30T03:55:27.292Z,0.20
2023-06-30T03:57:54.325Z,0.47
2023-06-30T04:00:21.591Z,0.33
2023-06-30T04:02:48.524Z,0.20
2023-06-30T04:05:15.983Z,0.27
2023-06-30T04:07:42.936Z,0.30
2023-06-30T04:10:10.198Z,0.43
2023-06-30T04:12:37.008Z,0.40
2023-06-30T04:15:05.359Z,0.30
2023-06-30T04:17:32.252Z,0.40
2023-06-30T04:19:59.446Z,0.50
2023-06-30T04:22:27.300Z,0.20
2023-06-30T04:24:54.126Z,0.77
2023-06-30T04:27:20.930Z,0.50
2023-06-30T04:29:47.834Z,0.40
2023-06-30T04:32:14.683Z,0.40
2023-06-30T04:34:41.492Z,0.37
2023-06-30T04:37:09.428Z,0.40
2023-06-30T04:39:36.314Z,0.13
2023-06-30T04:42:04.361Z,0.50
2023-06-30T04:44:31.456Z,0.10
2023-06-30T04:46:58.295Z,0.60
2023-06-30T04:49:25.590Z,0.50
2023-06-30T04:51:52.446Z,0.60
2023-06-30T04:54:20.484Z,0.53
2023-06-30T04:56:47.395Z,0.17
2023-06-30T04:59:14.192Z,0.23
2023-06-30T05:01:41.050Z,0.60
2023-06-30T05:04:09.227Z,0.40
2023-06-30T05:06:36.059Z,0.40
2023-06-30T05:09:02.853Z,0.60
2023-06-30T05:11:29.651Z,0.17
2023-06-30T05:13:57.049Z,0.60
2023-06-30T05:16:23.892Z,0.13
2023-06-30T05:18:50.704Z,0.40
2023-06-30T05:21:17.747Z,0.50
2023-06-30T05:23:44.656Z,0.40
2023-06-30T05:26:11.911Z,0.40
2023-06-30T05:28:38.851Z,0.30
2023-06-30T05:31:06.589Z,0.20
2023-06-30T05:33:33.545Z,0.33
2023-06-30T05:36:00.393Z,0.23
2023-06-30T05:38:27.236Z,0.27
2023-06-30T05:40:54.186Z,0.30
2023-06-30T05:43:21.178Z,0.57
2023-06-30T05:45:50.588Z,0.60
2023-06-30T05:48:17.563Z,0.00
2023-06-30T05:50:46.494Z,0.70
2023-06-30T05:53:13.581Z,0.93
2023-06-30T05:55:40.405Z,0.50
2023-06-30T05:58:07.257Z,0.33
2023-06-30T06:00:34.043Z,0.33
2023-06-30T06:03:02.416Z,0.50
2023-06-30T06:05:29.732Z,0.43
2023-06-30T06:07:56.824Z,0.63
2023-06-30T06:10:23.630Z,0.60
2023-06-30T06:12:53.763Z,0.50
2023-06-30T06:15:20.648Z,0.53
2023-06-30T06:17:47.750Z,0.20
2023-06-30T06:20:14.650Z,0.30
2023-06-30T06:22:41.509Z,0.57
2023-06-30T06:25:08.519Z,0.30
2023-06-30T06:27:39.088Z,0.50
2023-06-30T06:30:06.649Z,0.43
2023-06-30T06:32:33.535Z,0.30
2023-06-30T06:35:00.352Z,0.90
2023-06-30T06:37:27.280Z,0.47
2023-06-30T06:39:54.134Z,0.73
2023-06-30T06:42:20.935Z,0.53
2023-06-30T06:44:47.765Z,0.50
2023-06-30T06:48:11.159Z,0.50
2023-06-30T06:50:37.993Z,0.30
2023-06-30T06:53:04.776Z,0.50
2023-06-30T06:55:31.625Z,0.37
2023-06-30T06:57:58.435Z,0.50
2023-06-30T07:00:25.308Z,0.30
2023-06-30T07:02:53.447Z,0.40
2023-06-30T07:05:20.588Z,0.30
2023-06-30T07:07:47.469Z,0.20
2023-06-30T07:10:14.308Z,0.40
2023-06-30T07:12:41.107Z,1.37
2023-06-30T07:15:08.511Z,0.93
2023-06-30T07:17:35.509Z,0.60
2023-06-30T07:20:02.515Z,0.83
2023-06-30T07:22:29.483Z,0.40
2023-06-30T07:24:56.486Z,0.43
2023-06-30T07:27:23.350Z,0.60
2023-06-30T07:29:51.720Z,0.30
2023-06-30T07:32:18.740Z,0.77
2023-06-30T07:34:45.639Z,0.40
2023-06-30T07:37:12.407Z,1.03
2023-06-30T07:39:39.421Z,0.60
2023-06-30T07:42:06.589Z,0.80
2023-06-30T07:44:34.606Z,1.10
2023-06-30T07:47:01.548Z,0.97
2023-06-30T07:49:28.490Z,0.97
2023-06-30T07:51:55.493Z,0.73
2023-06-30T07:54:22.473Z,1.30
2023-06-30T07:56:49.383Z,1.80
2023-06-30T07:59:16.330Z,1.20
2023-06-30T08:01:43.185Z,1.00
2023-06-30T08:04:10.154Z,1.17
2023-06-30T08:06:37.296Z,1.43
2023-06-30T08:09:04.122Z,1.37
2023-06-30T08:11:31.921Z,1.47
2023-06-30T08:14:00.918Z,1.07
2023-06-30T08:16:27.713Z,1.20
2023-06-30T08:18:55.023Z,1.33
2023-06-30T08:21:21.969Z,1.37
2023-06-30T08:23:48.865Z,0.93
2023-06-30T08:26:16.285Z,1.20
2023-06-30T08:28:43.269Z,1.27
2023-06-30T08:31:10.084Z,2.03
2023-06-30T08:33:40.299Z,2.47
2023-06-30T08:36:07.808Z,2.27
2023-06-30T08:38:34.913Z,2.23
2023-06-30T08:41:03.823Z,1.43
2023-06-30T08:43:32.535Z,1.37
2023-06-30T08:46:04.615Z,1.93
2023-06-30T08:48:32.866Z,1.73
2023-06-30T08:51:00.810Z,2.73
2023-06-30T08:53:29.965Z,1.70
2023-06-30T08:56:00.127Z,2.37
2023-06-30T08:58:28.287Z,1.87
2023-06-30T09:00:56.699Z,1.33
2023-06-30T09:03:24.043Z,0.83
2023-06-30T09:05:56.733Z,1.50
2023-06-30T09:08:25.131Z,0.70
2023-06-30T09:10:53.095Z,1.03
2023-06-30T09:13:22.316Z,0.60
2023-06-30T09:15:49.797Z,0.37
2023-06-30T09:18:17.153Z,0.90
2023-06-30T09:20:44.267Z,0.77
2023-06-30T09:23:11.929Z,1.07
2023-06-30T09:25:40.910Z,0.50
2023-06-30T09:28:14.819Z,0.60
2023-06-30T09:30:47.221Z,0.50
2023-06-30T09:33:16.335Z,0.30
2023-06-30T09:35:47.260Z,0.20
2023-06-30T09:38:17.750Z,0.30
2023-06-30T09:40:48.590Z,0.27
2023-06-30T09:43:23.475Z,0.13
2023-06-30T09:46:01.646Z,0.10
2023-06-30T09:48:35.007Z,0.47
2023-06-30T09:51:01.986Z,0.40
2023-06-30T09:53:40.271Z,0.30
2023-06-30T09:56:09.279Z,0.20
2023-06-30T09:58:40.550Z,0.27
2023-06-30T10:01:09.084Z,0.10
2023-06-30T10:03:48.830Z,0.10
2023-06-30T10:06:19.122Z,0.50
2023-06-30T10:08:47.718Z,0.50
2023-06-30T10:11:14.784Z,0.37
2023-06-30T10:13:46.575Z,0.10
2023-06-30T10:16:15.232Z,0.37
2023-06-30T10:18:47.445Z,0.37
2023-06-30T10:21:14.272Z,0.50
2023-06-30T10:23:43.891Z,0.47
2023-06-30T10:26:14.129Z,0.40
2023-06-30T10:28:42.321Z,0.60
2023-06-30T10:31:10.519Z,0.20
2023-06-30T10:33:39.097Z,0.13
2023-06-30T10:36:07.852Z,0.43
2023-06-30T10:38:36.776Z,0.23
2023-06-30T10:41:20.341Z,0.30
2023-06-30T10:44:08.226Z,0.20
2023-06-30T10:46:52.762Z,0.23
2023-06-30T10:49:36.198Z,0.20
2023-06-30T10:52:08.504Z,0.10
2023-06-30T10:54:47.073Z,0.20
2023-06-30T10:57:19.202Z,0.37
2023-06-30T10:59:48.335Z,0.33
2023-06-30T11:02:18.315Z,0.30
2023-06-30T11:04:47.568Z,0.20
2023-06-30T11:07:28.014Z,0.40
2023-06-30T11:09:54.740Z,0.13
2023-06-30T11:12:26.039Z,0.20
2023-06-30T11:15:00.187Z,0.10
2023-06-30T11:17:52.844Z,0.20
2023-06-30T11:20:20.041Z,0.17
2023-06-30T11:23:04.869Z,0.20
2023-06-30T11:25:34.317Z,0.20
2023-06-30T11:28:03.342Z,0.30
2023-06-30T11:30:38.377Z,0.10
2023-06-30T11:33:06.941Z,0.20
2023-06-30T11:35:36.512Z,0.40
2023-06-30T11:38:03.696Z,0.20
2023-06-30T11:40:30.584Z,0.20
2023-06-30T11:42:57.438Z,0.30
2023-06-30T11:45:28.723Z,0.20
2023-06-30T11:47:57.143Z,0.07
2023-06-30T11:50:26.577Z,0.20
2023-06-30T11:52:53.451Z,0.13
2023-06-30T11:55:20.982Z,0.33
2023-06-30T11:57:48.113Z,0.37
2023-06-30T12:00:23.182Z,0.30
2023-06-30T12:02:52.081Z,0.23
2023-06-30T12:05:24.999Z,0.60
2023-06-30T12:07:57.484Z,0.57
2023-06-30T12:10:40.488Z,0.60
2023-06-30T12:13:12.401Z,0.30
2023-06-30T12:15:39.271Z,0.30
2023-06-30T12:18:06.754Z,0.40
2023-06-30T12:20:38.765Z,0.70
2023-06-30T12:23:07.238Z,0.33
2023-06-30T12:25:37.725Z,0.33
2023-06-30T12:28:06.317Z,0.20
2023-06-30T12:30:33.863Z,0.17
2023-06-30T12:33:02.708Z,0.23
2023-06-30T12:35:32.771Z,0.37
2023-06-30T12:38:00.361Z,0.40
2023-06-30T12:40:30.292Z,0.40
2023-06-30T12:42:58.966Z,0.30
2023-06-30T12:45:25.782Z,0.40
2023-06-30T12:47:53.177Z,0.50
2023-06-30T12:50:20.632Z,0.60
2023-06-30T12:52:48.074Z,0.57
2023-06-30T12:55:15.439Z,0.40
2023-06-30T12:57:42.211Z,0.87
2023-06-30T13:00:13.076Z,0.70
2023-06-30T13:02:40.145Z,0.60
2023-06-30T13:05:07.504Z,0.33
2023-06-30T13:07:35.779Z,0.70
2023-06-30T13:10:04.434Z,0.23
2023-06-30T13:12:31.830Z,0.87
2023-06-30T13:14:59.195Z,0.63
2023-06-30T13:17:26.419Z,0.60
2023-06-30T13:19:53.479Z,0.80
2023-06-30T13:22:20.698Z,0.73
2023-06-30T13:24:49.573Z,0.70
2023-06-30T13:27:16.994Z,0.77
2023-06-30T13:29:51.569Z,1.00
2023-06-30T13:32:18.858Z,0.87
2023-06-30T13:34:47.649Z,0.70
2023-06-30T13:37:14.659Z,0.60
2023-06-30T13:39:41.615Z,0.60
2023-06-30T13:42:09.812Z,0.80
2023-06-30T13:44:37.415Z,0.57
2023-06-30T13:47:04.654Z,0.40
2023-06-30T13:49:31.559Z,0.80
2023-06-30T13:51:58.650Z,0.43
2023-06-30T13:54:25.646Z,0.57
2023-06-30T13:56:53.477Z,0.50
2023-06-30T13:59:20.605Z,0.70
2023-06-30T14:01:47.500Z,0.63
2023-06-30T14:04:14.710Z,0.40
2023-06-30T14:06:41.550Z,0.30
2023-06-30T14:09:10.950Z,0.30
2023-06-30T14:11:39.461Z,0.80
2023-06-30T14:14:06.458Z,0.50
2023-06-30T14:16:35.456Z,0.30
2023-06-30T14:19:02.641Z,0.37
2023-06-30T14:21:31.683Z,0.80
2023-06-30T14:23:59.476Z,0.83
2023-06-30T14:26:30.507Z,0.60
2023-06-30T14:28:57.516Z,0.40
2023-06-30T14:31:24.373Z,0.60
2023-06-30T14:33:51.215Z,0.77
2023-06-30T14:36:19.386Z,0.30
2023-06-30T14:38:47.216Z,0.60
2023-06-30T14:41:14.049Z,0.50
2023-06-30T14:43:40.850Z,0.40
2023-06-30T14:46:07.723Z,0.43
2023-06-30T14:48:34.522Z,0.30
2023-06-30T14:51:01.338Z,0.37
2023-06-30T14:53:28.180Z,0.70
2023-06-30T14:55:54.988Z,0.67
2023-06-30T14:58:21.811Z,0.80
2023-06-30T15:00:49.885Z,0.60
2023-06-30T15:03:18.080Z,0.40
2023-06-30T15:05:45.356Z,0.50
2023-06-30T15:08:12.691Z,0.53
2023-06-30T15:10:39.503Z,0.70
2023-06-30T15:13:06.292Z,0.63
2023-06-30T15:15:33.051Z,1.00
2023-06-30T15:17:59.932Z,0.30
2023-06-30T15:20:26.790Z,0.30
2023-06-30T15:22:53.621Z,0.50
2023-06-30T15:25:29.457Z,0.40
2023-06-30T15:27:57.001Z,0.52
2023-06-30T15:30:24.389Z,0.47
2023-06-30T15:32:51.992Z,0.35
2023-06-30T15:35:18.929Z,0.30
2023-06-30T15:37:45.931Z,0.47
2023-06-30T15:40:13.779Z,0.40
2023-06-30T15:42:42.959Z,0.47
2023-06-30T15:45:10.518Z,0.63
2023-06-30T15:47:37.367Z,0.50
2023-06-30T15:50:04.922Z,0.63
2023-06-30T15:52:31.722Z,0.50
2023-06-30T15:55:12.699Z,0.50
2023-06-30T15:57:40.209Z,0.60
2023-06-30T16:00:09.280Z,0.50
2023-06-30T16:02:36.960Z,0.60
2023-06-30T16:05:07.012Z,0.67
2023-06-30T16:07:33.820Z,0.87
2023-06-30T16:10:00.680Z,0.30
2023-06-30T16:12:27.463Z,0.80
2023-06-30T16:14:54.281Z,0.60
2023-06-30T16:17:21.074Z,0.67
2023-06-30T16:19:47.901Z,0.70
2023-06-30T16:22:14.691Z,0.67
2023-06-30T16:24:43.092Z,0.47
2023-06-30T16:27:11.812Z,0.40
2023-06-30T16:29:38.632Z,0.87
2023-06-30T16:32:07.370Z,0.50
2023-06-30T16:34:35.163Z,0.43
2023-06-30T16:37:02.480Z,0.90
2023-06-30T16:39:29.306Z,0.40
2023-06-30T16:41:56.120Z,0.93
2023-06-30T16:44:22.901Z,0.37
2023-06-30T16:46:49.712Z,0.57
2023-06-30T16:49:16.737Z,0.47
2023-06-30T16:51:43.690Z,0.63
2023-06-30T16:54:10.670Z,0.20
2023-06-30T16:56:37.558Z,0.60
2023-06-30T16:59:04.569Z,0.40
2023-06-30T17:01:31.460Z,0.60
2023-06-30T17:03:58.337Z,0.50
2023-06-30T17:06:26.499Z,0.30
2023-06-30T17:08:54.331Z,0.20
2023-06-30T17:11:21.372Z,0.43
2023-06-30T17:13:48.198Z,0.30
2023-06-30T17:16:15.382Z,0.40
2023-06-30T17:18:42.204Z,0.40
2023-06-30T17:21:08.997Z,0.60
2023-06-30T17:23:35.770Z,0.30
2023-06-30T17:26:02.562Z,0.50
2023-06-30T17:28:30.679Z,0.20
2023-06-30T17:30:57.601Z,0.30
2023-06-30T17:33:24.520Z,0.30
2023-06-30T17:35:51.449Z,0.30
2023-06-30T17:38:18.284Z,0.30
2023-06-30T17:40:45.165Z,0.33
2023-06-30T17:43:12.846Z,0.30
2023-06-30T17:45:42.590Z,0.23
2023-06-30T17:48:09.473Z,0.40
2023-06-30T17:50:36.441Z,0.50
2023-06-30T17:53:03.513Z,0.30
2023-06-30T17:55:30.520Z,0.60
2023-06-30T17:57:57.445Z,0.57
2023-06-30T18:00:24.330Z,0.27
2023-06-30T18:02:51.360Z,0.53
2023-06-30T18:05:18.333Z,0.73
2023-06-30T18:07:45.229Z,0.40
2023-06-30T18:10:14.900Z,0.30
2023-06-30T18:12:42.393Z,0.20
2023-06-30T18:15:12.506Z,0.40
2023-06-30T18:17:39.385Z,0.20
2023-06-30T18:20:07.291Z,0.30
2023-06-30T18:22:34.130Z,0.40
2023-06-30T18:25:00.929Z,0.57
2023-06-30T18:27:27.717Z,0.47
2023-06-30T18:29:54.591Z,0.33
2023-06-30T18:32:21.473Z,0.30
2023-06-30T18:34:49.598Z,0.40
2023-06-30T18:37:16.475Z,0.40
2023-06-30T18:39:43.272Z,0.33
2023-06-30T18:42:10.183Z,0.60
2023-06-30T18:44:38.109Z,0.40
2023-06-30T18:47:08.442Z,0.30
2023-06-30T18:49:35.518Z,0.50
2023-06-30T18:52:02.446Z,0.33
2023-06-30T18:54:29.386Z,0.33
2023-06-30T18:56:56.274Z,0.33
2023-06-30T18:59:23.113Z,0.10
2023-06-30T19:01:50.093Z,0.40
2023-06-30T19:04:17.319Z,0.30
2023-06-30T19:06:44.549Z,0.30
2023-06-30T19:09:11.617Z,0.20
2023-06-30T19:11:39.265Z,0.20
2023-06-30T19:14:06.400Z,0.50
2023-06-30T19:16:33.358Z,0.30
2023-06-30T19:19:00.216Z,0.37
2023-06-30T19:21:27.189Z,0.37
2023-06-30T19:23:54.138Z,0.30
2023-06-30T19:26:21.852Z,0.20
2023-06-30T19:28:49.841Z,0.20
2023-06-30T19:31:17.128Z,0.30
2023-06-30T19:33:44.027Z,0.30
2023-06-30T19:36:10.849Z,0.30
2023-06-30T19:38:37.640Z,0.30
2023-06-30T19:41:04.544Z,0.13
2023-06-30T19:43:31.354Z,0.70
2023-06-30T19:45:59.505Z,0.30
2023-06-30T19:48:26.389Z,0.20
2023-06-30T19:50:53.238Z,0.33
2023-06-30T19:53:20.391Z,0.20
2023-06-30T19:55:47.615Z,0.27
2023-06-30T19:58:14.633Z,0.30
2023-06-30T20:00:41.514Z,0.20
2023-06-30T20:03:08.569Z,0.20
2023-06-30T20:05:36.573Z,0.30
2023-06-30T20:08:03.659Z,0.10
2023-06-30T20:10:30.445Z,0.00
2023-06-30T20:12:57.387Z,0.27
2023-06-30T20:15:24.256Z,0.30
2023-06-30T20:17:51.084Z,0.20
2023-06-30T20:20:17.924Z,0.20
2023-06-30T20:22:44.863Z,0.30
2023-06-30T20:25:11.746Z,0.30
2023-06-30T20:27:40.150Z,0.20
2023-06-30T20:30:10.035Z,0.30
2023-06-30T20:32:36.959Z,0.10
2023-06-30T20:35:04.208Z,0.40
2023-06-30T20:37:31.020Z,0.30
2023-06-30T20:39:57.836Z,0.20
2023-06-30T20:42:24.838Z,0.30
2023-06-30T20:44:51.858Z,0.30
2023-06-30T20:47:18.971Z,0.30
2023-06-30T20:49:45.897Z,0.10
2023-06-30T20:52:12.796Z,0.10
2023-06-30T20:54:39.690Z,0.27
2023-06-30T20:57:07.164Z,0.10
2023-06-30T20:59:34.172Z,0.20
2023-06-30T21:02:02.400Z,0.20
2023-06-30T21:04:29.437Z,0.27
2023-06-30T21:06:57.794Z,0.20
2023-06-30T21:09:24.642Z,0.10
2023-06-30T21:11:51.443Z,0.10
2023-06-30T21:14:21.198Z,0.10
2023-06-30T21:16:48.577Z,0.20
2023-06-30T21:19:15.536Z,0.17
2023-06-30T21:21:42.446Z,0.17
2023-06-30T21:24:09.387Z,0.40
2023-06-30T21:26:36.213Z,0.17
2023-06-30T21:29:04.203Z,0.20
2023-06-30T21:31:31.353Z,0.00
2023-06-30T21:33:58.520Z,0.20
2023-06-30T21:36:25.358Z,0.17
2023-06-30T21:38:52.216Z,0.20
2023-06-30T21:41:19.051Z,0.10
2023-06-30T21:43:45.825Z,0.40
2023-06-30T21:46:14.485Z,0.20
2023-06-30T21:48:41.494Z,0.20
2023-06-30T21:51:09.344Z,0.17
2023-06-30T21:53:36.282Z,0.23
2023-06-30T21:56:03.067Z,0.10
2023-06-30T21:58:30.017Z,0.20
2023-06-30T22:00:56.864Z,0.27
2023-06-30T22:03:23.828Z,0.20
2023-06-30T22:05:51.542Z,0.10
2023-06-30T22:08:19.588Z,0.10
2023-06-30T22:10:46.750Z,0.30
2023-06-30T22:13:13.978Z,0.20
2023-06-30T22:15:40.968Z,0.20
2023-06-30T22:18:08.226Z,0.03
2023-06-30T22:20:35.236Z,0.00
2023-06-30T22:23:02.642Z,0.10
2023-06-30T22:25:29.999Z,0.10
2023-06-30T22:27:58.868Z,0.10
2023-06-30T22:30:27.213Z,0.10
2023-06-30T22:32:54.686Z,0.20
2023-06-30T22:35:22.379Z,0.10
2023-06-30T22:37:49.171Z,0.00
2023-06-30T22:40:19.698Z,0.10
2023-06-30T22:42:46.751Z,0.10
2023-06-30T22:45:15.006Z,0.00
2023-06-30T22:47:42.167Z,0.00
2023-06-30T22:50:09.717Z,0.10
2023-06-30T22:52:39.429Z,0.10
2023-06-30T22:55:08.183Z,0.50
2023-06-30T22:57:35.080Z,0.00
2023-06-30T23:00:01.920Z,0.30
2023-06-30T23:02:28.860Z,0.10
2023-06-30T23:04:56.988Z,0.10
2023-06-30T23:07:23.923Z,0.00
2023-06-30T23:09:50.754Z,0.00
2023-06-30T23:12:17.569Z,0.17
2023-06-30T23:14:44.405Z,0.20
2023-06-30T23:17:16.769Z,0.40
2023-06-30T23:19:51.134Z,0.20
2023-06-30T23:22:19.892Z,0.10
2023-06-30T23:24:48.046Z,0.57
2023-06-30T23:27:16.968Z,0.10
2023-06-30T23:29:50.371Z,0.00
2023-06-30T23:32:21.610Z,0.10
2023-06-30T23:34:49.332Z,0.00
2023-06-30T23:37:18.292Z,0.10
2023-06-30T23:39:48.370Z,0.10
2023-06-30T23:42:15.642Z,0.00
2023-06-30T23:44:42.853Z,0.07
2023-06-30T23:47:17.317Z,0.20
2023-06-30T23:49:46.107Z,0.10
2023-06-30T23:52:12.892Z,0.10
2023-06-30T23:54:39.692Z,0.20
2023-06-30T23:57:06.560Z,0.00
2023-06-30T23:59:33.385Z,0.20
